Latest Coastal Weather Observations for Warruwi

IDD60701

Issued at 6:31 pm CST Saturday 25 February 2017 (issued every 10 minutes, with the page automatically refreshed every 10 minutes)

About coastal observations | Map of coastal stations | Coastal observations for NT | Marine services | Other Formats
Station Details ID: 014401 Name: WARRUWI AIRPORT Lat: -11.65 Lon: 133.38 Height: 19.2 m
Data from the previous 72 hours. | See also: Recent months at Warruwi
Date/Time
CST
Temp
°C
Wind Pressure Rain since
9am
mm
Weather Cloud Vis
km
Sea
Height
m
Swell
Dir  Spd
kts
Gust
kts
hPa Trend Height
m
Period
s
Dir
25/06:30pm - ESE 6 8 1008.6 - 0.0 - - - - - - -
25/06:00pm - E 8 14 1008.3 - 0.0 - - - - - - -
25/05:30pm - NE 3 8 1007.9 - 0.0 - - - - - - -
25/05:00pm - NNE 5 9 1007.3 - 0.0 - - - - - - -
25/04:30pm - N 6 10 1007.6 - 0.0 - - - - - - -
25/04:00pm - N 5 9 1007.7 - 0.0 - - - - - - -
25/03:30pm - NNW 5 9 1007.9 - 0.0 - - - - - - -
25/03:00pm - N 4 8 1008.0 - 0.0 - - - - - - -
25/02:30pm - NNW 5 10 1008.2 - 0.0 - - - - - - -
25/02:00pm - N 3 6 1008.5 - 0.0 - - - - - - -
25/01:30pm - ENE 3 6 1009.0 - 0.0 - - - - - - -
25/01:00pm - NE 4 6 1009.7 - 0.0 - - - - - - -
25/12:30pm - ENE 4 6 1010.3 - 0.0 - - - - - - -
25/12:00pm - SE 3 5 1010.7 - 0.0 - - - - - - -
25/11:30am - ESE 3 4 1011.2 - 0.0 - - - - - - -
25/11:00am - SSE 3 6 1011.7 - 0.0 - - - - - - -
25/10:30am - SSW 4 7 1011.8 - 0.0 - - - - - - -
25/10:00am - SSW 4 6 1012.0 - 0.0 - - - - - - -
25/09:30am - SW 3 6 1012.0 - 0.0 - - - - - - -
25/09:00am - SW 2 3 1011.9 - 0.4 - - - - - - -
25/08:30am - CALM 0 0 1011.5 - 0.4 - - - - - - -
25/08:00am - SSW 1 3 1011.1 - 0.4 - - - - - - -
25/07:30am - SW 1 1 1010.8 - 0.4 - - - - - - -
25/07:00am - CALM 0 0 1010.6 - 0.4 - - - - - - -
25/06:30am - CALM 0 0 1010.4 - 0.4 - - - - - - -
25/06:00am - CALM 0 0 1010.2 - 0.4 - - - - - - -
25/05:30am - CALM 0 0 1010.0 - 0.4 - - - - - - -
25/05:00am - CALM 0 0 1009.7 - 0.4 - - - - - - -
25/04:30am - CALM 0 0 1009.5 - 0.4 - - - - - - -
25/04:00am - CALM 0 0 1009.6 - 0.4 - - - - - - -
25/03:30am - CALM 0 0 1009.6 - 0.4 - - - - - - -
25/03:00am - CALM 0 0 1009.8 - 0.4 - - - - - - -
25/02:30am - CALM 0 0 1010.2 - 0.4 - - - - - - -
25/02:00am - CALM 0 0 1010.7 - 0.4 - - - - - - -
25/01:30am - CALM 0 0 1010.8 - 0.4 - - - - - - -
25/01:00am - CALM 0 0 1011.0 - 0.4 - - - - - - -
25/12:30am - CALM 0 0 1011.1 - 0.4 - - - - - - -
25/12:00am - CALM 0 0 1011.3 - 0.4 - - - - - - -
 
Date/Time
CST
Temp
°C
Wind Pressure Rain since
9am
mm
Weather Cloud Vis
km
Sea
Height
m
Swell
Dir  Spd
kts
Gust
kts
hPa Trend Height
m
Period
s
Dir
24/11:30pm - CALM 0 1 1011.1 - 0.4 - - - - - - -
24/11:00pm - CALM 0 0 1011.1 - 0.4 - - - - - - -
24/10:30pm - CALM 0 0 1010.7 - 0.4 - - - - - - -
24/10:00pm - CALM 0 0 1010.6 - 0.4 - - - - - - -
24/09:30pm - CALM 0 0 1010.5 - 0.4 - - - - - - -
24/09:00pm - CALM 0 0 1010.4 - 0.4 - - - - - - -
24/08:30pm - NE 1 2 1010.3 - 0.4 - - - - - - -
24/08:00pm - CALM 0 1 1010.2 - 0.4 - - - - - - -
24/07:30pm - CALM 0 0 1009.9 - 0.4 - - - - - - -
24/07:00pm - N 1 3 1009.5 - 0.4 - - - - - - -
24/06:30pm - NNW 2 3 1009.1 - 0.4 - - - - - - -
24/06:00pm - N 3 5 1009.1 - 0.4 - - - - - - -
24/05:30pm - NNE 3 4 1009.0 - 0.4 - - - - - - -
24/05:00pm - NE 4 6 1009.1 - 0.4 - - - - - - -
24/04:30pm - NNE 4 7 1009.1 - 0.4 - - - - - - -
24/04:00pm - NE 5 7 1009.2 - 0.4 - - - - - - -
24/03:30pm - NNW 5 8 1009.4 - 0.4 - - - - - - -
24/03:00pm - N 6 9 1009.2 - 0.4 - - - - - - -
24/02:30pm - N 6 9 1009.5 - 0.4 - - - - - - -
24/02:00pm - N 4 8 1009.9 - 0.4 - - - - - - -
24/01:30pm - ENE 4 6 1010.2 - 0.2 - - - - - - -
24/01:00pm - ESE 4 5 1010.8 - 0.2 - - - - - - -
24/12:30pm - NE 2 3 1011.4 - 0.2 - - - - - - -
24/12:00pm - E 3 5 1011.7 - 0.2 Rain - - - - - -
24/11:30am - ENE 1 5 1011.9 - 0.0 - - - - - - -
24/11:00am - WNW 3 5 1012.0 - 0.0 - - - - - - -
24/10:30am - W 5 7 1012.2 - 0.0 - - - - - - -
24/10:00am - WNW 4 6 1012.3 - 0.0 - - - - - - -
24/09:30am - W 6 8 1012.3 - 0.0 - - - - - - -
24/09:00am - WNW 2 7 1012.2 - 0.0 - - - - - - -
24/08:30am - W 2 3 1012.3 - 0.0 - - - - - - -
24/08:00am - WNW 1 2 1012.1 - 0.0 - - - - - - -
24/07:30am - WSW 5 7 1011.8 - 0.0 - - - - - - -
24/07:00am - NW 2 3 1011.6 - 0.0 - - - - - - -
24/06:30am - WNW 1 1 1011.2 - 0.0 - - - - - - -
24/06:00am - NNW 1 2 1010.4 - 0.0 - - - - - - -
24/05:30am - NNW 2 3 1010.2 - 0.0 - - - - - - -
24/05:00am - WNW 3 4 1010.1 - 0.0 - - - - - - -
24/04:30am - NW 2 5 1009.8 - 0.0 - - - - - - -
24/04:00am - NNW 2 6 1009.7 - 0.0 - - - - - - -
24/03:30am - NW 2 4 1009.5 - 0.0 - - - - - - -
24/03:00am - NNW 2 4 1009.5 - 0.0 - - - - - - -
24/02:30am - NW 3 5 1009.9 - 0.0 - - - - - - -
24/02:00am - NW 2 5 1010.1 - 0.0 - - - - - - -
24/01:30am - N 2 5 1010.2 - 0.0 - - - - - - -
24/01:00am - N 2 5 1010.4 - 0.0 - - - - - - -
24/12:30am - NNW 3 6 1010.6 - 0.0 - - - - - - -
24/12:00am - NNW 3 5 1010.7 - 0.0 - - - - - - -
 
Date/Time
CST
Temp
°C
Wind Pressure Rain since
9am
mm
Weather Cloud Vis
km
Sea
Height
m
Swell
Dir  Spd
kts
Gust
kts
hPa Trend Height
m
Period
s
Dir
23/11:30pm - NNW 3 5 1010.9 - 0.0 - - - - - - -
23/11:00pm - NNW 2 5 1010.7 - 0.0 - - - - - - -
23/10:30pm - NNW 2 4 1010.3 - 0.0 - - - - - - -
23/10:00pm - N 2 5 1010.0 - 0.0 - - - - - - -
23/09:30pm - N 2 4 1009.6 - 0.0 - - - - - - -
23/09:00pm - N 2 4 1009.6 - 0.0 - - - - - - -
23/08:30pm - NNE 3 5 1009.2 - 0.0 - - - - - - -
23/08:00pm - N 3 7 1008.8 - 0.0 - - - - - - -
23/07:30pm - NNW 3 5 1008.4 - 0.0 - - - - - - -
23/07:00pm - N 3 5 1008.1 - 0.0 - - - - - - -
23/06:30pm - NNW 4 8 1007.8 - 0.0 - - - - - - -
23/06:00pm - N 4 10 1007.2 - 0.0 - - - - - - -
23/05:30pm - N 5 8 1007.1 - 0.0 - - - - - - -
23/05:00pm - N 6 9 1006.8 - 0.0 - - - - - - -
23/04:30pm - N 7 13 1006.8 - 0.0 - - - - - - -
23/04:00pm - N 6 11 1007.0 - 0.0 - - - - - - -
23/03:30pm - N 7 13 1007.1 - 0.0 - - - - - - -
23/03:00pm - N 6 13 1007.3 - 0.0 - - - - - - -
23/02:30pm - N 7 12 1007.7 - 0.0 - - - - - - -
23/02:00pm - N 6 12 1007.9 - 0.0 - - - - - - -
23/01:30pm - NNW 5 9 1008.2 - 0.0 - - - - - - -
23/01:00pm - N 5 11 1008.5 - 0.0 - - - - - - -
23/12:30pm - NNW 5 9 1009.0 - 0.0 - - - - - - -
23/12:00pm - N 5 8 1009.3 - 0.0 - - - - - - -
23/11:30am - N 5 7 1009.5 - 0.0 - - - - - - -
23/11:00am - NW 4 6 1009.8 - 0.0 - - - - - - -
23/10:30am - WNW 3 5 1010.1 - 0.0 - - - - - - -
23/10:00am - W 5 7 1010.2 - 0.0 - - - - - - -
23/09:30am - WNW 5 6 1010.3 - 0.0 - - - - - - -
23/09:00am - WNW 5 7 1010.2 - 0.0 - - - - - - -
23/08:30am - W 5 7 1010.1 - 0.0 - - - - - - -
23/08:00am - W 6 9 1009.9 - 0.0 - - - - - - -
23/07:30am - W 4 5 1009.7 - 0.0 - - - - - - -
23/07:00am - WSW 4 7 1009.6 - 0.0 - - - - - - -
23/06:30am - WSW 3 4 1009.4 - 0.0 - - - - - - -
23/06:00am - W 5 8 1009.1 - 0.0 - - - - - - -
23/05:30am - W 5 7 1008.9 - 0.0 - - - - - - -
23/05:00am - W 5 8 1008.8 - 0.0 - - - - - - -
23/04:30am - W 6 9 1008.7 - 0.0 - - - - - - -
23/04:00am - W 6 8 1008.5 - 0.0 - - - - - - -
23/03:30am - W 6 8 1008.3 - 0.0 - - - - - - -
23/03:00am - W 6 9 1008.2 - 0.0 - - - - - - -
23/02:30am - W 8 11 1008.1 - 0.0 - - - - - - -
23/02:00am - W 9 12 1008.4 - 0.0 - - - - - - -
23/01:30am - W 9 11 1008.6 - 0.0 - - - - - - -
23/01:00am - WNW 6 8 1009.1 - 0.0 - - - - - - -
23/12:30am - WNW 6 9 1009.4 - 0.0 - - - - - - -
23/12:00am - WNW 5 9 1009.9 - 0.0 - - - - - - -
 
Date/Time
CST
Temp
°C
Wind Pressure Rain since
9am
mm
Weather Cloud Vis
km
Sea
Height
m
Swell
Dir  Spd
kts
Gust
kts
hPa Trend Height
m
Period
s
Dir
22/11:30pm - WNW 5 7 1010.1 - 0.0 - - - - - - -
22/11:00pm - WNW 5 9 1010.0 - 0.0 - - - - - - -
22/10:30pm - WNW 5 8 1010.0 - 0.0 - - - - - - -
22/10:00pm - WNW 5 9 1009.9 - 0.0 - - - - - - -
22/09:30pm - NW 4 7 1009.8 - 0.0 - - - - - - -
22/09:00pm - NW 4 8 1009.4 - 0.0 - - - - - - -
22/08:30pm - NW 4 8 1009.2 - 0.0 - - - - - - -
22/08:00pm - NW 4 7 1009.0 - 0.0 - - - - - - -
22/07:30pm - NW 4 10 1008.7 - 0.0 - - - - - - -
22/07:00pm - NNW 5 9 1008.4 - 0.0 - - - - - - -

Other Formats:

Comma delimited format used in spreadsheet applications
http://www.bom.gov.au/fwo/IDD60701/IDD60701.94139.axf

JavaScript Object Notation format (JSON) in row-major order
http://www.bom.gov.au/fwo/IDD60701/IDD60701.94139.json